createdAt,value
2022-11-22T00:00:19.038Z,50.834785
2022-11-22T00:01:19.103Z,50.834785
2022-11-22T00:02:19.122Z,50.834785
2022-11-22T00:03:19.001Z,50.834805
2022-11-22T00:04:19.001Z,50.834782
2022-11-22T00:05:18.982Z,50.834793
2022-11-22T00:06:18.965Z,50.834782
2022-11-22T00:07:19.017Z,50.834782
2022-11-22T00:08:18.971Z,50.834782
2022-11-22T00:09:18.994Z,50.834785
2022-11-22T00:10:18.913Z,50.834785
2022-11-22T00:11:19.898Z,50.834774
2022-11-22T00:12:18.880Z,50.834766
2022-11-22T00:13:18.946Z,50.834770
2022-11-22T00:14:18.951Z,50.834778
2022-11-22T00:15:18.908Z,50.834782
2022-11-22T00:16:18.884Z,50.834782
2022-11-22T00:17:18.897Z,50.834797
2022-11-22T00:18:18.926Z,50.834782
2022-11-22T00:19:18.881Z,50.834778
2022-11-22T00:20:18.845Z,50.834766
2022-11-22T00:21:18.841Z,50.834793
2022-11-22T00:22:18.872Z,50.834793
2022-11-22T00:23:18.901Z,50.834782
2022-11-22T00:24:18.796Z,50.834797
2022-11-22T00:25:18.820Z,50.834805
2022-11-22T00:26:18.821Z,50.834869
2022-11-22T00:27:18.814Z,50.834866
2022-11-22T00:28:18.774Z,50.834858
2022-11-22T00:29:18.801Z,50.834869
2022-11-22T00:30:18.760Z,50.834808
2022-11-22T00:31:18.756Z,50.834831
2022-11-22T00:32:18.763Z,50.834839
2022-11-22T00:33:18.804Z,50.834866
2022-11-22T00:34:18.786Z,50.834843
2022-11-22T00:35:18.722Z,50.834843
2022-11-22T00:36:18.771Z,50.834843
2022-11-22T00:37:18.709Z,50.834827
2022-11-22T00:38:18.679Z,50.834827
2022-11-22T00:39:18.709Z,50.834816
2022-11-22T00:40:18.687Z,50.834801
2022-11-22T00:41:18.662Z,50.834816
2022-11-22T00:42:18.708Z,50.834805
2022-11-22T00:43:18.688Z,50.834805
2022-11-22T00:44:18.652Z,50.834816
2022-11-22T00:45:18.664Z,50.834820
2022-11-22T00:46:18.740Z,50.834793
2022-11-22T00:47:18.640Z,50.834835
2022-11-22T00:48:18.713Z,50.834885
2022-11-22T00:49:18.656Z,50.834801
2022-11-22T00:50:18.605Z,50.834846
2022-11-22T00:51:18.596Z,50.834843
2022-11-22T00:52:18.665Z,50.834812
2022-11-22T00:53:18.582Z,50.834805
2022-11-22T00:54:18.609Z,50.834839
2022-11-22T00:55:18.560Z,50.834793
2022-11-22T00:56:18.614Z,50.834812
2022-11-22T00:57:19.509Z,50.834816
2022-11-22T00:58:50.974Z,50.834793
2022-11-22T00:59:18.597Z,50.834805
2022-11-22T01:00:18.565Z,50.834782
2022-11-22T01:01:18.714Z,50.834797
2022-11-22T01:02:18.523Z,50.834824
2022-11-22T01:03:18.527Z,50.834846
2022-11-22T01:04:18.553Z,50.834824
2022-11-22T01:05:18.477Z,50.834827
2022-11-22T01:06:18.470Z,50.834827
2022-11-22T01:07:18.599Z,50.834827
2022-11-22T01:08:18.458Z,50.834835
2022-11-22T01:09:18.503Z,50.834812
2022-11-22T01:10:18.521Z,50.834812
2022-11-22T01:11:18.444Z,50.834827
2022-11-22T01:12:18.414Z,50.834831
2022-11-22T01:13:18.415Z,50.834835
2022-11-22T01:14:18.452Z,50.834835
2022-11-22T01:15:18.481Z,50.834827
2022-11-22T01:16:18.391Z,50.834820
2022-11-22T01:17:18.408Z,50.834805
2022-11-22T01:18:18.448Z,50.834824
2022-11-22T01:19:19.388Z,50.834827
2022-11-22T01:20:18.381Z,50.834854
2022-11-22T01:21:18.368Z,50.834827
2022-11-22T01:22:18.399Z,50.834824
2022-11-22T01:23:18.423Z,50.834854
2022-11-22T01:24:18.376Z,50.834831
2022-11-22T01:25:18.350Z,50.834824
2022-11-22T01:26:18.348Z,50.834827
2022-11-22T01:27:18.309Z,50.834843
2022-11-22T01:28:18.386Z,50.834839
2022-11-22T01:29:19.345Z,50.834820
2022-11-22T01:30:18.303Z,50.834839
2022-11-22T01:31:18.281Z,50.834827
2022-11-22T01:32:18.283Z,50.834812
2022-11-22T01:33:18.306Z,50.834827
2022-11-22T01:34:18.270Z,50.834835
2022-11-22T01:35:18.289Z,50.834831
2022-11-22T01:36:18.249Z,50.834831
2022-11-22T01:37:18.343Z,50.834824
2022-11-22T01:38:18.202Z,50.834824
2022-11-22T01:39:18.234Z,50.834824
2022-11-22T01:40:18.246Z,50.834839
2022-11-22T01:41:18.218Z,50.834835
2022-11-22T01:42:18.195Z,50.834835
2022-11-22T01:43:18.189Z,50.834812
2022-11-22T01:44:18.208Z,50.834831
2022-11-22T01:45:18.228Z,50.834812
2022-11-22T01:46:18.166Z,50.834835
2022-11-22T01:47:18.170Z,50.834835
2022-11-22T01:48:18.195Z,50.834839
2022-11-22T01:49:18.181Z,50.834839
2022-11-22T01:50:18.152Z,50.834816
2022-11-22T01:51:18.151Z,50.834827
2022-11-22T01:52:18.120Z,50.834827
2022-11-22T01:53:18.158Z,50.834827
2022-11-22T01:54:18.121Z,50.834854
2022-11-22T01:55:18.186Z,50.834831
2022-11-22T01:56:18.090Z,50.834805
2022-11-22T01:57:18.168Z,50.834820
2022-11-22T01:58:18.152Z,50.834820
2022-11-22T01:59:18.109Z,50.834846
2022-11-22T02:00:18.074Z,50.834812
2022-11-22T02:01:18.137Z,50.834820
2022-11-22T02:02:18.096Z,50.834846
2022-11-22T02:03:18.046Z,50.834820
2022-11-22T02:04:18.057Z,50.834808
2022-11-22T02:05:18.033Z,50.834820
2022-11-22T02:06:18.060Z,50.834824
2022-11-22T02:07:18.050Z,50.834866
2022-11-22T02:08:18.019Z,50.834831
2022-11-22T02:09:18.031Z,50.834824
2022-11-22T02:10:18.011Z,50.834839
2022-11-22T02:11:17.994Z,50.834824
2022-11-22T02:12:18.009Z,50.834827
2022-11-22T02:13:17.994Z,50.834827
2022-11-22T02:14:17.969Z,50.834820
2022-11-22T02:15:17.954Z,50.834812
2022-11-22T02:16:18.007Z,50.834824
2022-11-22T02:17:17.998Z,50.834831
2022-11-22T02:18:17.962Z,50.834843
2022-11-22T02:19:17.928Z,50.834824
2022-11-22T02:20:17.952Z,50.834827
2022-11-22T02:21:17.912Z,50.834831
2022-11-22T02:22:17.927Z,50.834820
2022-11-22T02:23:17.915Z,50.834843
2022-11-22T02:24:17.920Z,50.834843
2022-11-22T02:25:17.869Z,50.834862
2022-11-22T02:26:17.880Z,50.834858
2022-11-22T02:27:17.919Z,50.834858
2022-11-22T02:28:49.794Z,50.834866
2022-11-22T02:29:17.840Z,50.834839
2022-11-22T02:30:17.902Z,50.834846
2022-11-22T02:31:17.821Z,50.834866
2022-11-22T02:32:18.836Z,50.834843
2022-11-22T02:33:17.829Z,50.834866
2022-11-22T02:34:17.827Z,50.834854
2022-11-22T02:35:17.793Z,50.834858
2022-11-22T02:36:17.818Z,50.834835
2022-11-22T02:37:17.780Z,50.834820
2022-11-22T02:38:17.771Z,50.834831
2022-11-22T02:39:17.799Z,50.834831
2022-11-22T02:40:17.770Z,50.834824
2022-11-22T02:41:17.744Z,50.834812
2022-11-22T02:42:17.741Z,50.834812
2022-11-22T02:43:17.731Z,50.834843
2022-11-22T02:44:17.749Z,50.834801
2022-11-22T02:45:17.731Z,50.834824
2022-11-22T02:46:17.711Z,50.834808
2022-11-22T02:47:17.714Z,50.834827
2022-11-22T02:48:17.690Z,50.834820
2022-11-22T02:49:17.704Z,50.834854
2022-11-22T02:50:17.703Z,50.834827
2022-11-22T02:51:17.670Z,50.834797
2022-11-22T02:52:17.676Z,50.834785
2022-11-22T02:53:17.648Z,50.834808
2022-11-22T02:54:17.718Z,50.834827
2022-11-22T02:55:17.656Z,50.834824
2022-11-22T02:56:17.632Z,50.834824
2022-11-22T02:57:17.660Z,50.834805
2022-11-22T02:58:17.623Z,50.834808
2022-11-22T02:59:17.607Z,50.834827
2022-11-22T03:00:17.604Z,50.834827
2022-11-22T03:01:17.670Z,50.834835
2022-11-22T03:02:17.610Z,50.834831
2022-11-22T03:03:17.589Z,50.834831
2022-11-22T03:04:17.621Z,50.834831
2022-11-22T03:05:17.580Z,50.834816
2022-11-22T03:06:17.586Z,50.834812
2022-11-22T03:07:17.633Z,50.834816
2022-11-22T03:08:17.547Z,50.834797
2022-11-22T03:09:17.561Z,50.834808
2022-11-22T03:10:17.524Z,50.834812
2022-11-22T03:11:17.574Z,50.834808
2022-11-22T03:12:17.519Z,50.834820
2022-11-22T03:13:17.522Z,50.834820
2022-11-22T03:14:17.502Z,50.834816
2022-11-22T03:15:17.506Z,50.834831
2022-11-22T03:16:17.514Z,50.834831
2022-11-22T03:17:17.470Z,50.834846
2022-11-22T03:18:17.510Z,50.834881
2022-11-22T03:19:17.454Z,50.834858
2022-11-22T03:20:17.455Z,50.834869
2022-11-22T03:21:17.467Z,50.834866
2022-11-22T03:22:17.436Z,50.834869
2022-11-22T03:23:17.509Z,50.834858
2022-11-22T03:24:17.420Z,50.834862
2022-11-22T03:25:17.464Z,50.834843
2022-11-22T03:26:17.501Z,50.834873
2022-11-22T03:27:17.398Z,50.834862
2022-11-22T03:28:17.409Z,50.834835
2022-11-22T03:29:17.388Z,50.834824
2022-11-22T03:30:17.384Z,50.834846
2022-11-22T03:31:17.380Z,50.834881
2022-11-22T03:32:17.362Z,50.834866
2022-11-22T03:33:17.371Z,50.834835
2022-11-22T03:34:17.340Z,50.834827
2022-11-22T03:35:17.386Z,50.834850
2022-11-22T03:36:17.336Z,50.834858
2022-11-22T03:37:17.354Z,50.834835
2022-11-22T03:38:17.326Z,50.834869
2022-11-22T03:39:17.328Z,50.834862
2022-11-22T03:40:17.314Z,50.834850
2022-11-22T03:41:17.308Z,50.834854
2022-11-22T03:42:21.629Z,50.834854
2022-11-22T03:43:18.279Z,50.834862
2022-11-22T03:44:17.324Z,50.834854
2022-11-22T03:45:17.320Z,50.834843
2022-11-22T03:46:17.276Z,50.834827
2022-11-22T03:47:17.240Z,50.834824
2022-11-22T04:09:55.678Z,50.834877
2022-11-22T04:10:55.667Z,50.834866
2022-11-22T04:11:55.682Z,50.834892
2022-11-22T04:12:55.644Z,50.834953
2022-11-22T04:13:55.657Z,50.834846
2022-11-22T04:14:55.609Z,50.834888
2022-11-22T04:15:55.636Z,50.834816
2022-11-22T04:16:55.597Z,50.834808
2022-11-22T04:17:55.631Z,50.834843
2022-11-22T04:18:55.694Z,50.834850
2022-11-22T04:19:55.616Z,50.834820
2022-11-22T04:20:55.591Z,50.834839
2022-11-22T04:21:55.570Z,50.834850
2022-11-22T04:22:55.576Z,50.834824
2022-11-22T04:23:55.593Z,50.834854
2022-11-22T04:24:55.663Z,50.834862
2022-11-22T04:25:55.576Z,50.834820
2022-11-22T04:26:55.599Z,50.834843
2022-11-22T04:27:55.543Z,50.834835
2022-11-22T04:29:09.127Z,50.834824
2022-11-22T04:29:57.520Z,50.834824
2022-11-22T04:30:55.534Z,50.834812
2022-11-22T04:31:55.559Z,50.834808
2022-11-22T04:32:55.500Z,50.834846
2022-11-22T04:33:55.517Z,50.834862
2022-11-22T04:34:55.491Z,50.834835
2022-11-22T04:35:55.497Z,50.834824
2022-11-22T04:36:55.456Z,50.834839
2022-11-22T04:37:55.489Z,50.834839
2022-11-22T04:38:55.479Z,50.834858
2022-11-22T04:39:55.475Z,50.834778
2022-11-22T04:40:55.431Z,50.834759
2022-11-22T04:41:55.435Z,50.834793
2022-11-22T04:42:55.412Z,50.834797
2022-11-22T04:43:55.431Z,50.834824
2022-11-22T04:44:55.379Z,50.834843
2022-11-22T04:45:55.389Z,50.834808
2022-11-22T04:46:55.431Z,50.834812
2022-11-22T04:47:55.380Z,50.834816
2022-11-22T04:48:55.372Z,50.834812
2022-11-22T04:49:55.387Z,50.834797
2022-11-22T04:50:55.339Z,50.834797
2022-11-22T04:51:55.353Z,50.834824
2022-11-22T04:52:55.362Z,50.834812
2022-11-22T04:53:55.320Z,50.834801
2022-11-22T04:54:55.350Z,50.834797
2022-11-22T04:55:55.329Z,50.834801
2022-11-22T04:56:55.330Z,50.834816
2022-11-22T04:57:59.529Z,50.834801
2022-11-22T04:58:57.275Z,50.834808
2022-11-22T04:59:55.311Z,50.834808
2022-11-22T05:00:55.328Z,50.834812
2022-11-22T05:01:55.294Z,50.834801
2022-11-22T05:02:55.268Z,50.834824
2022-11-22T05:03:55.246Z,50.834858
2022-11-22T05:04:55.280Z,50.834835
2022-11-22T05:05:55.225Z,50.834812
2022-11-22T05:06:55.262Z,50.834812
2022-11-22T05:07:55.236Z,50.834801
2022-11-22T05:08:55.804Z,50.834793
2022-11-22T05:09:55.198Z,50.834801
2022-11-22T05:10:55.189Z,50.834820
2022-11-22T05:11:55.198Z,50.834824
2022-11-22T05:12:55.218Z,50.834824
2022-11-22T05:13:55.204Z,50.834820
2022-11-22T05:14:55.180Z,50.834835
2022-11-22T05:15:55.179Z,50.834763
2022-11-22T05:16:55.156Z,50.834805
2022-11-22T05:17:55.170Z,50.834797
2022-11-22T05:18:55.143Z,50.834774
2022-11-22T05:19:55.142Z,50.834782
2022-11-22T05:20:55.129Z,50.834778
2022-11-22T05:21:55.104Z,50.834820
2022-11-22T05:22:55.153Z,50.834812
2022-11-22T05:23:55.140Z,50.834812
2022-11-22T05:24:55.143Z,50.834820
2022-11-22T05:25:55.110Z,50.834801
2022-11-22T05:26:55.118Z,50.834816
2022-11-22T05:27:55.107Z,50.834805
2022-11-22T05:28:55.069Z,50.834774
2022-11-22T05:29:55.060Z,50.834824
2022-11-22T05:30:55.048Z,50.834816
2022-11-22T05:31:55.057Z,50.834854
2022-11-22T05:32:55.040Z,50.834824
2022-11-22T05:33:55.067Z,50.834812
2022-11-22T05:34:55.025Z,50.834820
2022-11-22T05:35:55.026Z,50.834805
2022-11-22T05:36:55.007Z,50.834831
2022-11-22T05:37:55.041Z,50.834827
2022-11-22T05:38:55.006Z,50.834824
2022-11-22T05:39:54.985Z,50.834843
2022-11-22T05:40:55.013Z,50.834839
2022-11-22T05:41:55.818Z,50.834866
2022-11-22T05:42:54.980Z,50.834850
2022-11-22T05:43:54.965Z,50.834839
2022-11-22T05:44:54.945Z,50.834839
2022-11-22T05:45:55.008Z,50.834831
2022-11-22T05:46:55.049Z,50.834820
2022-11-22T05:47:54.934Z,50.834827
2022-11-22T05:48:54.947Z,50.834805
2022-11-22T05:49:54.974Z,50.834805
2022-11-22T05:50:55.951Z,50.834759
2022-11-22T05:51:54.893Z,50.834782
2022-11-22T05:52:54.906Z,50.834751
2022-11-22T05:53:54.899Z,50.834778
2022-11-22T05:54:54.879Z,50.834770
2022-11-22T05:55:54.872Z,50.834766
2022-11-22T05:56:54.890Z,50.834763
2022-11-22T05:57:54.871Z,50.834770
2022-11-22T05:58:54.841Z,50.834812
2022-11-22T05:59:54.833Z,50.834789
2022-11-22T06:00:54.819Z,50.834797
2022-11-22T06:01:54.871Z,50.834812
2022-11-22T06:02:54.808Z,50.834816
2022-11-22T06:03:54.789Z,50.834808
2022-11-22T06:04:54.879Z,50.834808
2022-11-22T06:05:54.784Z,50.834808
2022-11-22T06:06:54.832Z,50.834797
2022-11-22T06:07:54.839Z,50.834797
2022-11-22T06:08:54.768Z,50.834805
2022-11-22T06:09:54.743Z,50.834789
2022-11-22T06:10:54.743Z,50.834785
2022-11-22T06:11:54.752Z,50.834793
2022-11-22T06:12:54.755Z,50.834789
2022-11-22T06:13:54.743Z,50.834797
2022-11-22T06:14:54.732Z,50.834820
2022-11-22T06:15:54.731Z,50.834801
2022-11-22T06:16:54.760Z,50.834801
2022-11-22T06:17:54.763Z,50.834793
2022-11-22T06:18:54.701Z,50.834797
2022-11-22T06:19:54.778Z,50.834805
2022-11-22T06:20:54.725Z,50.834805
2022-11-22T06:21:54.680Z,50.834793
2022-11-22T06:22:54.761Z,50.834808
2022-11-22T06:23:54.668Z,50.834801
2022-11-22T06:24:54.688Z,50.834808
2022-11-22T06:25:54.761Z,50.834820
2022-11-22T06:26:54.743Z,50.834805
2022-11-22T06:27:54.647Z,50.834805
2022-11-22T06:28:54.666Z,50.834801
2022-11-22T06:29:54.641Z,50.834789
2022-11-22T06:30:54.605Z,50.834812
2022-11-22T06:31:55.911Z,50.834801
2022-11-22T06:32:54.596Z,50.834782
2022-11-22T06:33:54.599Z,50.834793
2022-11-22T06:34:54.613Z,50.834793
2022-11-22T06:35:54.604Z,50.834816
2022-11-22T06:36:54.633Z,50.834808
2022-11-22T06:38:00.386Z,50.834820
2022-11-22T06:38:56.581Z,50.834816
2022-11-22T06:39:54.534Z,50.834805
2022-11-22T06:40:54.527Z,50.834805
2022-11-22T06:41:54.532Z,50.834793
2022-11-22T06:42:54.534Z,50.834793
2022-11-22T06:43:54.523Z,50.834801
2022-11-22T06:44:54.487Z,50.834812
2022-11-22T06:45:54.504Z,50.834789
2022-11-22T06:46:54.476Z,50.834797
2022-11-22T06:47:54.510Z,50.834793
2022-11-22T06:48:54.485Z,50.834789
2022-11-22T06:49:54.457Z,50.834805
2022-11-22T06:50:54.505Z,50.834808
2022-11-22T06:51:54.434Z,50.834797
2022-11-22T06:52:54.497Z,50.834801
2022-11-22T06:53:54.461Z,50.834785
2022-11-22T06:54:54.578Z,50.834785
2022-11-22T06:55:59.781Z,50.834766
2022-11-22T06:56:56.394Z,50.834766
2022-11-22T06:57:54.420Z,50.834785
2022-11-22T06:58:54.438Z,50.834785
2022-11-22T06:59:54.422Z,50.834782
2022-11-22T07:00:54.487Z,50.834774
2022-11-22T07:01:54.458Z,50.834766
2022-11-22T07:02:54.379Z,50.834770
2022-11-22T07:03:54.402Z,50.834763
2022-11-22T07:05:23.310Z,50.834785
2022-11-22T07:05:56.372Z,50.834785
2022-11-22T07:06:54.326Z,50.834785
2022-11-22T07:07:56.781Z,50.834785
2022-11-22T07:08:55.337Z,50.834785
2022-11-22T07:09:56.602Z,50.834778
2022-11-22T07:10:55.281Z,50.834782
2022-11-22T07:11:54.296Z,50.834766
2022-11-22T07:12:54.309Z,50.834740
2022-11-22T07:13:54.300Z,50.834755
2022-11-22T07:15:26.687Z,50.834766
2022-11-22T07:15:54.275Z,50.834778
2022-11-22T07:16:54.301Z,50.834778
2022-11-22T07:17:54.281Z,50.834778
2022-11-22T07:18:54.220Z,50.834785
2022-11-22T07:19:54.235Z,50.834812
2022-11-22T07:20:54.197Z,50.834824
2022-11-22T07:21:54.218Z,50.834816
2022-11-22T07:22:54.193Z,50.834801
2022-11-22T07:23:54.249Z,50.834778
2022-11-22T07:24:54.246Z,50.834782
2022-11-22T07:25:54.199Z,50.834797
2022-11-22T07:26:54.222Z,50.834816
2022-11-22T07:27:54.171Z,50.834831
2022-11-22T07:28:54.154Z,50.834820
2022-11-22T07:29:54.153Z,50.834816
2022-11-22T07:30:54.180Z,50.834839
2022-11-22T07:31:54.155Z,50.834793
2022-11-22T07:32:54.138Z,50.834835
2022-11-22T07:33:55.150Z,50.834850
2022-11-22T07:34:54.116Z,50.834816
2022-11-22T07:35:54.120Z,50.834785
2022-11-22T07:36:59.097Z,50.834805
2022-11-22T07:37:56.140Z,50.834793
2022-11-22T07:38:54.101Z,50.834816
2022-11-22T07:39:54.085Z,50.834801
2022-11-22T07:40:54.069Z,50.834816
2022-11-22T07:41:54.048Z,50.834808
2022-11-22T07:42:58.277Z,50.834812
2022-11-22T07:43:55.135Z,50.834808
2022-11-22T07:44:54.022Z,50.834785
2022-11-22T07:45:54.841Z,50.834785
2022-11-22T07:46:54.032Z,50.834816
2022-11-22T07:47:54.004Z,50.834820
2022-11-22T07:48:54.037Z,50.834808
2022-11-22T07:49:54.014Z,50.834793
2022-11-22T07:50:53.994Z,50.834827
2022-11-22T07:51:53.994Z,50.834816
2022-11-22T07:52:53.994Z,50.834797
2022-11-22T07:53:53.994Z,50.834805
2022-11-22T07:54:53.974Z,50.834805
2022-11-22T07:55:54.002Z,50.834812
2022-11-22T07:56:53.937Z,50.834793
2022-11-22T07:57:53.940Z,50.834797
2022-11-22T07:58:54.014Z,50.834816
2022-11-22T07:59:53.918Z,50.834831
2022-11-22T08:00:53.995Z,50.834831
2022-11-22T08:01:54.139Z,50.834846
2022-11-22T08:02:54.010Z,50.834839
2022-11-22T08:03:53.902Z,50.834831
2022-11-22T08:04:53.939Z,50.834839
2022-11-22T08:05:53.912Z,50.834846
2022-11-22T08:06:53.999Z,50.834846
2022-11-22T08:07:53.908Z,50.834831
2022-11-22T08:09:00.357Z,50.834785
2022-11-22T08:09:55.890Z,50.834824
2022-11-22T08:10:53.843Z,50.834854
2022-11-22T08:11:53.880Z,50.834885
2022-11-22T08:12:53.834Z,50.834862
2022-11-22T08:13:53.870Z,50.834846
2022-11-22T08:14:53.875Z,50.834827
2022-11-22T08:15:54.847Z,50.834858
2022-11-22T08:16:54.938Z,50.834885
2022-11-22T08:17:53.796Z,50.834866
2022-11-22T08:18:53.876Z,50.834835
2022-11-22T08:19:53.880Z,50.834816
2022-11-22T08:20:53.773Z,50.834797
2022-11-22T08:21:58.244Z,50.834782
2022-11-22T08:22:54.765Z,50.834843
2022-11-22T08:23:53.776Z,50.834824
2022-11-22T08:24:53.774Z,50.834759
2022-11-22T08:25:53.775Z,50.834805
2022-11-22T08:26:53.752Z,50.834801
2022-11-22T08:28:25.672Z,50.834797
2022-11-22T08:28:53.766Z,50.834843
2022-11-22T08:29:53.757Z,50.834805
2022-11-22T08:30:53.731Z,50.834805
2022-11-22T08:31:53.687Z,50.834785
2022-11-22T08:32:53.719Z,50.834797
2022-11-22T08:33:53.708Z,50.834812
2022-11-22T08:34:53.748Z,50.834782
2022-11-22T08:35:53.712Z,50.834789
2022-11-22T08:36:53.670Z,50.834774
2022-11-22T08:37:53.654Z,50.834801
2022-11-22T08:38:53.681Z,50.834812
2022-11-22T08:39:53.644Z,50.834793
2022-11-22T08:40:53.617Z,50.834785
2022-11-22T08:41:53.646Z,50.834782
2022-11-22T08:42:53.591Z,50.834789
2022-11-22T08:44:26.633Z,50.834778
2022-11-22T08:44:53.586Z,50.834801
2022-11-22T08:45:53.635Z,50.834793
2022-11-22T08:46:53.577Z,50.834812
2022-11-22T08:47:53.554Z,50.834820
2022-11-22T08:48:53.576Z,50.834820
2022-11-22T08:49:53.580Z,50.834801
2022-11-22T08:50:53.695Z,50.834789
2022-11-22T08:51:53.606Z,50.834785
2022-11-22T08:52:53.513Z,50.834793
2022-11-22T08:53:53.533Z,50.834812
2022-11-22T08:54:53.514Z,50.834820
2022-11-22T08:55:53.476Z,50.834797
2022-11-22T08:56:53.518Z,50.834812
2022-11-22T08:57:53.573Z,50.834816
2022-11-22T08:58:53.527Z,50.834797
2022-11-22T08:59:53.488Z,50.834808
2022-11-22T09:00:53.549Z,50.834820
2022-11-22T09:01:53.550Z,50.834816
2022-11-22T09:02:53.434Z,50.834808
2022-11-22T09:03:53.484Z,50.834816
2022-11-22T09:04:53.426Z,50.834812
2022-11-22T09:08:24.674Z,50.834808
2022-11-22T09:09:08.691Z,50.834816
2022-11-22T09:09:55.410Z,50.834782
2022-11-22T09:10:53.390Z,50.834785
2022-11-22T09:11:53.379Z,50.834785
2022-11-22T09:12:53.392Z,50.834789
2022-11-22T09:13:53.364Z,50.834774
2022-11-22T09:14:53.354Z,50.834782
2022-11-22T09:15:53.357Z,50.834782
2022-11-22T09:16:53.367Z,50.834763
2022-11-22T09:17:53.343Z,50.834755
2022-11-22T09:18:53.313Z,50.834789
2022-11-22T09:19:53.312Z,50.834808
2022-11-22T09:20:53.319Z,50.834805
2022-11-22T09:21:53.322Z,50.834797
2022-11-22T09:22:53.374Z,50.834778
2022-11-22T09:23:53.333Z,50.834789
2022-11-22T09:24:53.263Z,50.834812
2022-11-22T09:25:53.318Z,50.834805
2022-11-22T09:27:25.169Z,50.834782
2022-11-22T09:27:53.354Z,50.834763
2022-11-22T09:28:53.275Z,50.834755
2022-11-22T09:29:53.243Z,50.834789
2022-11-22T09:30:53.307Z,50.834770
2022-11-22T09:31:53.247Z,50.834785
2022-11-22T09:32:53.201Z,50.834789
2022-11-22T09:33:53.194Z,50.834785
2022-11-22T09:34:53.236Z,50.834782
2022-11-22T09:35:53.225Z,50.834770
2022-11-22T09:36:53.202Z,50.834763
2022-11-22T09:37:53.214Z,50.834743
2022-11-22T09:38:53.247Z,50.834736
2022-11-22T09:39:53.151Z,50.834724
2022-11-22T09:40:54.210Z,50.834759
2022-11-22T09:41:53.185Z,50.834774
2022-11-22T09:42:53.146Z,50.834785
2022-11-22T09:43:53.128Z,50.834766
2022-11-22T09:44:53.113Z,50.834782
2022-11-22T09:45:53.127Z,50.834778
2022-11-22T09:46:53.144Z,50.834797
2022-11-22T09:47:53.143Z,50.834774
2022-11-22T09:48:53.091Z,50.834785
2022-11-22T09:49:53.114Z,50.834789
2022-11-22T09:50:53.054Z,50.834770
2022-11-22T09:51:53.056Z,50.834751
2022-11-22T09:52:53.151Z,50.834755
2022-11-22T09:53:53.078Z,50.834782
2022-11-22T09:54:53.119Z,50.834759
2022-11-22T09:55:53.051Z,50.834732
2022-11-22T09:56:53.037Z,50.834778
2022-11-22T09:57:53.028Z,50.834763
2022-11-22T09:58:53.058Z,50.834778
2022-11-22T09:59:53.006Z,50.834763
2022-11-22T10:00:53.086Z,50.834785
2022-11-22T10:01:53.017Z,50.834766
2022-11-22T10:03:00.946Z,50.834763
2022-11-22T10:03:55.124Z,50.834759
2022-11-22T10:04:52.975Z,50.834785
2022-11-22T10:05:52.965Z,50.834785
2022-11-22T10:06:52.975Z,50.834785
2022-11-22T10:07:52.953Z,50.834770
2022-11-22T10:08:53.986Z,50.834782
2022-11-22T10:09:52.918Z,50.834805
2022-11-22T10:10:53.009Z,50.834805
2022-11-22T10:11:52.902Z,50.834785
2022-11-22T10:12:52.917Z,50.834789
2022-11-22T10:13:53.874Z,50.834793
2022-11-22T10:14:53.956Z,50.834778
2022-11-22T10:15:52.942Z,50.834785
2022-11-22T10:16:52.885Z,50.834805
2022-11-22T10:17:52.873Z,50.834785
2022-11-22T10:18:52.842Z,50.834785
2022-11-22T10:19:52.894Z,50.834801
2022-11-22T10:20:52.949Z,50.834793
2022-11-22T10:21:52.880Z,50.834782
2022-11-22T10:22:52.843Z,50.834812
2022-11-22T10:23:52.848Z,50.834808
2022-11-22T10:25:24.768Z,50.834797
2022-11-22T10:25:52.809Z,50.834766
2022-11-22T10:27:25.807Z,50.834763
2022-11-22T10:27:56.261Z,50.834766
2022-11-22T10:28:54.783Z,50.834770
2022-11-22T10:29:52.783Z,50.834747
2022-11-22T10:30:53.484Z,50.834770
2022-11-22T10:31:52.755Z,50.834778
2022-11-22T10:32:52.756Z,50.834774
2022-11-22T10:33:52.783Z,50.834770
2022-11-22T10:34:52.785Z,50.834782
2022-11-22T10:35:52.780Z,50.834789
2022-11-22T10:36:52.732Z,50.834774
2022-11-22T10:37:52.745Z,50.834797
2022-11-22T10:38:52.769Z,50.834782
2022-11-22T10:39:52.715Z,50.834808
2022-11-22T10:40:52.756Z,50.834793
2022-11-22T10:42:24.651Z,50.834789
2022-11-22T10:42:52.752Z,50.834789
2022-11-22T10:43:52.684Z,50.834770
2022-11-22T10:45:24.579Z,50.834793
2022-11-22T10:45:52.682Z,50.834774
2022-11-22T10:46:56.745Z,50.834789
2022-11-22T10:47:53.679Z,50.834770
2022-11-22T10:48:52.664Z,50.834770
2022-11-22T10:49:52.631Z,50.834797
2022-11-22T10:50:52.690Z,50.834782
2022-11-22T10:51:52.619Z,50.834793
2022-11-22T10:52:52.629Z,50.834805
2022-11-22T10:53:52.597Z,50.834801
2022-11-22T10:54:52.615Z,50.834812
2022-11-22T10:55:52.596Z,50.834812
2022-11-22T10:56:52.621Z,50.834805
2022-11-22T10:57:52.600Z,50.834785
2022-11-22T10:58:52.663Z,50.834793
2022-11-22T10:59:52.536Z,50.834785
2022-11-22T11:00:52.617Z,50.834805
2022-11-22T11:01:52.555Z,50.834793
2022-11-22T11:02:52.554Z,50.834785
2022-11-22T11:03:52.565Z,50.834793
2022-11-22T11:04:52.568Z,50.834793
2022-11-22T11:06:22.803Z,50.834816
2022-11-22T11:07:11.789Z,50.834812
2022-11-22T11:08:04.110Z,50.834774
2022-11-22T11:09:47.636Z,50.834774
2022-11-22T11:10:10.880Z,50.834793
2022-11-22T11:10:54.458Z,50.834778
2022-11-22T11:11:53.435Z,50.834820
2022-11-22T11:12:52.471Z,50.834805
2022-11-22T11:13:52.451Z,50.834774
2022-11-22T11:15:24.412Z,50.834797
2022-11-22T11:15:56.257Z,50.834785
2022-11-22T11:16:53.413Z,50.834755
2022-11-22T11:17:52.425Z,50.834763
2022-11-22T11:18:52.414Z,50.834782
2022-11-22T11:19:52.450Z,50.834774
2022-11-22T11:20:52.398Z,50.834770
2022-11-22T11:21:52.363Z,50.834778
2022-11-22T11:23:13.798Z,50.834789
2022-11-22T11:23:54.386Z,50.834793
2022-11-22T11:24:52.417Z,50.834785
2022-11-22T11:25:52.353Z,50.834797
2022-11-22T11:26:52.335Z,50.834797
2022-11-22T11:27:52.319Z,50.834812
2022-11-22T11:28:52.348Z,50.834808
2022-11-22T11:29:52.355Z,50.834801
2022-11-22T11:30:52.513Z,50.834797
2022-11-22T11:31:52.298Z,50.834785
2022-11-22T11:32:53.095Z,50.834797
2022-11-22T11:33:52.301Z,50.834808
2022-11-22T11:34:52.349Z,50.834827
2022-11-22T11:35:52.295Z,50.834793
2022-11-22T11:36:52.278Z,50.834801
2022-11-22T11:37:52.267Z,50.834805
2022-11-22T11:38:52.237Z,50.834801
2022-11-22T11:39:52.259Z,50.834805
2022-11-22T11:40:52.242Z,50.834805
2022-11-22T11:41:52.261Z,50.834797
2022-11-22T11:42:52.247Z,50.834801
2022-11-22T11:43:53.060Z,50.834808
2022-11-22T11:44:52.236Z,50.834812
2022-11-22T11:45:52.190Z,50.834824
2022-11-22T11:46:52.282Z,50.834812
2022-11-22T11:47:52.181Z,50.834805